createdAt,value
2023-09-24T00:01:07.360Z,101672.03
2023-09-24T00:03:36.867Z,101673.81
2023-09-24T00:06:06.518Z,101681.72
2023-09-24T00:08:34.528Z,101684.34
2023-09-24T00:11:03.850Z,101679.97
2023-09-24T00:13:35.056Z,101685.25
2023-09-24T00:16:07.182Z,101681.81
2023-09-24T00:18:37.039Z,101688.00
2023-09-24T00:21:05.460Z,101680.22
2023-09-24T00:23:33.386Z,101690.75
2023-09-24T00:26:01.301Z,101688.09
2023-09-24T00:28:29.776Z,101683.88
2023-09-24T00:30:59.424Z,101698.78
2023-09-24T00:33:27.452Z,101692.69
2023-09-24T00:35:59.467Z,101697.06
2023-09-24T00:38:28.616Z,101691.03
2023-09-24T00:40:56.557Z,101693.66
2023-09-24T00:43:29.717Z,101687.63
2023-09-24T00:45:59.164Z,101694.56
2023-09-24T00:48:31.754Z,101695.38
2023-09-24T00:51:03.249Z,101695.38
2023-09-24T00:53:32.564Z,101704.09
2023-09-24T00:56:01.226Z,101703.22
2023-09-24T00:58:32.038Z,101710.22
2023-09-24T01:01:00.226Z,101710.31
2023-09-24T01:03:29.325Z,101708.56
2023-09-24T01:05:57.699Z,101707.69
2023-09-24T01:08:32.471Z,101709.41
2023-09-24T01:11:01.071Z,101716.38
2023-09-24T01:13:39.148Z,101712.09
2023-09-24T01:16:07.986Z,101714.72
2023-09-24T01:18:37.995Z,101706.94
2023-09-24T01:21:08.767Z,101713.91
2023-09-24T01:23:39.886Z,101714.81
2023-09-24T01:26:08.992Z,101713.06
2023-09-24T01:28:36.865Z,101715.69
2023-09-24T01:31:04.957Z,101717.44
2023-09-24T01:33:33.672Z,101727.06
2023-09-24T01:36:01.796Z,101735.78
2023-09-24T01:38:29.738Z,101739.28
2023-09-24T01:40:59.556Z,101748.03
2023-09-24T01:43:27.970Z,101747.19
2023-09-24T01:45:55.823Z,101745.47
2023-09-24T01:48:25.000Z,101753.34
2023-09-24T01:50:54.026Z,101749.84
2023-09-24T01:53:23.844Z,101745.50
2023-09-24T01:55:53.030Z,101742.91
2023-09-24T01:58:22.361Z,101749.88
2023-09-24T02:00:50.651Z,101751.63
2023-09-24T02:03:18.685Z,101750.75
2023-09-24T02:05:47.990Z,101749.88
2023-09-24T02:08:16.232Z,101743.78
2023-09-24T02:10:45.066Z,101747.25
2023-09-24T02:13:14.448Z,101746.38
2023-09-24T02:15:45.620Z,101735.09
2023-09-24T02:18:14.115Z,101748.16
2023-09-24T02:20:43.569Z,101739.44
2023-09-24T02:23:12.108Z,101742.06
2023-09-24T02:25:39.992Z,101736.81
2023-09-24T02:28:08.722Z,101753.41
2023-09-24T02:30:38.188Z,101746.41
2023-09-24T02:33:07.998Z,101749.03
2023-09-24T02:35:36.941Z,101753.38
2023-09-24T02:38:08.326Z,101756.88
2023-09-24T02:40:36.818Z,101756.88
2023-09-24T02:43:05.496Z,101763.00
2023-09-24T02:45:34.308Z,101756.00
2023-09-24T02:48:04.738Z,101749.91
2023-09-24T02:50:34.239Z,101753.38
2023-09-24T02:53:05.928Z,101752.53
2023-09-24T02:55:34.867Z,101751.66
2023-09-24T02:58:06.656Z,101754.28
2023-09-24T03:00:37.555Z,101756.91
2023-09-24T03:03:07.579Z,101763.88
2023-09-24T03:05:37.553Z,101765.56
2023-09-24T03:08:07.360Z,101768.19
2023-09-24T03:10:36.802Z,101765.56
2023-09-24T03:13:06.095Z,101762.97
2023-09-24T03:15:34.496Z,101764.69
2023-09-24T03:18:03.296Z,101769.06
2023-09-24T03:20:31.762Z,101769.91
2023-09-24T03:23:04.545Z,101774.25
2023-09-24T03:25:33.532Z,101775.13
2023-09-24T03:28:02.988Z,101784.72
2023-09-24T03:30:32.030Z,101785.59
2023-09-24T03:33:01.576Z,101780.31
2023-09-24T03:35:29.949Z,101788.19
2023-09-24T03:37:58.796Z,101787.28
2023-09-24T03:40:30.260Z,101787.28
2023-09-24T03:42:58.632Z,101797.72
2023-09-24T03:45:27.502Z,101796.00
2023-09-24T03:47:58.341Z,101795.13
2023-09-24T03:51:08.275Z,101799.47
2023-09-24T03:53:36.243Z,101800.31
2023-09-24T03:56:08.503Z,101804.66
2023-09-24T03:58:36.546Z,101802.03
2023-09-24T04:01:11.117Z,101811.59
2023-09-24T04:03:39.562Z,101813.34
2023-09-24T04:06:12.998Z,101804.63
2023-09-24T04:08:41.475Z,101810.66
2023-09-24T04:11:12.997Z,101814.09
2023-09-24T04:13:41.254Z,101818.44
2023-09-24T04:16:11.636Z,101821.06
2023-09-24T04:18:39.902Z,101828.88
2023-09-24T04:21:16.549Z,101825.34
2023-09-24T04:23:44.738Z,101834.00
2023-09-24T04:26:22.801Z,101834.91
2023-09-24T04:28:51.918Z,101830.50
2023-09-24T04:31:19.822Z,101836.50
2023-09-24T04:33:49.482Z,101843.44
2023-09-24T04:36:19.233Z,101842.56
2023-09-24T04:38:48.248Z,101846.94
2023-09-24T04:41:17.390Z,101849.47
2023-09-24T04:43:46.991Z,101847.72
2023-09-24T04:46:15.236Z,101852.88
2023-09-24T04:48:43.411Z,101848.53
2023-09-24T04:51:12.134Z,101854.63
2023-09-24T04:53:40.865Z,101853.66
2023-09-24T04:56:09.800Z,101858.00
2023-09-24T04:58:37.698Z,101861.44
2023-09-24T05:01:09.861Z,101857.09
2023-09-24T05:03:43.980Z,101863.16
2023-09-24T05:06:12.489Z,101863.13
2023-09-24T05:08:40.394Z,101875.34
2023-09-24T05:11:11.599Z,101867.47
2023-09-24T05:13:39.526Z,101873.56
2023-09-24T05:16:09.848Z,101881.34
2023-09-24T05:18:38.656Z,101886.63
2023-09-24T05:21:15.575Z,101886.63
2023-09-24T05:23:43.614Z,101895.31
2023-09-24T05:26:13.246Z,101891.81
2023-09-24T05:28:41.495Z,101896.22
2023-09-24T05:31:10.632Z,101897.06
2023-09-24T05:33:39.355Z,101898.00
2023-09-24T05:36:08.994Z,101907.56
2023-09-24T05:38:37.060Z,101899.72
2023-09-24T05:41:06.591Z,101904.94
2023-09-24T05:43:34.548Z,101904.09
2023-09-24T05:46:03.366Z,101913.69
2023-09-24T05:48:32.662Z,101909.34
2023-09-24T05:51:04.971Z,101910.22
2023-09-24T05:53:33.663Z,101912.06
2023-09-24T05:56:04.369Z,101908.63
2023-09-24T05:58:32.309Z,101910.38
2023-09-24T06:01:00.963Z,101912.16
2023-09-24T06:03:28.966Z,101915.66
2023-09-24T06:05:58.320Z,101919.22
2023-09-24T06:08:26.218Z,101911.38
2023-09-24T06:10:54.208Z,101921.97
2023-09-24T06:13:22.213Z,101920.25
2023-09-24T06:15:50.113Z,101934.31
2023-09-24T06:18:18.065Z,101937.03
2023-09-24T06:20:46.019Z,101946.72
2023-09-24T06:23:15.227Z,101944.25
2023-09-24T06:25:43.355Z,101954.75
2023-09-24T06:28:11.613Z,101965.25
2023-09-24T06:30:39.903Z,101959.19
2023-09-24T06:33:08.635Z,101957.47
2023-09-24T06:35:39.005Z,101967.06
2023-09-24T06:38:06.910Z,101968.75
2023-09-24T06:40:40.133Z,101975.69
2023-09-24T06:43:08.281Z,101975.75
2023-09-24T06:45:37.071Z,101975.66
2023-09-24T06:48:05.684Z,101973.97
2023-09-24T06:50:35.682Z,101976.56
2023-09-24T06:53:03.570Z,101978.28
2023-09-24T06:55:31.448Z,101973.94
2023-09-24T06:58:00.809Z,101972.88
2023-09-24T07:00:28.813Z,101974.53
2023-09-24T07:02:56.718Z,101978.56
2023-09-24T07:05:24.639Z,101976.94
2023-09-24T07:07:52.909Z,101983.06
2023-09-24T07:10:23.396Z,101985.16
2023-09-24T07:12:51.381Z,101991.47
2023-09-24T07:15:20.963Z,101983.25
2023-09-24T07:17:48.953Z,101987.34
2023-09-24T07:20:17.156Z,101981.41
2023-09-24T07:22:45.075Z,101986.56
2023-09-24T07:25:12.970Z,101989.94
2023-09-24T07:27:42.151Z,101988.19
2023-09-24T07:30:11.162Z,101980.31
2023-09-24T07:32:40.774Z,101988.53
2023-09-24T07:35:10.443Z,101995.22
2023-09-24T07:37:40.173Z,101997.25
2023-09-24T07:40:10.138Z,101997.44
2023-09-24T07:42:39.649Z,102001.59
2023-09-24T07:45:13.033Z,101998.34
2023-09-24T07:47:42.384Z,102007.03
2023-09-24T07:50:11.782Z,102010.50
2023-09-24T07:52:39.635Z,102000.25
2023-09-24T07:55:08.049Z,102007.31
2023-09-24T07:57:35.839Z,102012.56
2023-09-24T08:00:04.606Z,102009.06
2023-09-24T08:02:39.956Z,102011.56
2023-09-24T08:05:11.046Z,102007.72
2023-09-24T08:07:41.096Z,102010.22
2023-09-24T08:10:11.088Z,102008.34
2023-09-24T08:12:38.898Z,102002.91
2023-09-24T08:15:07.896Z,101999.69
2023-09-24T08:17:36.069Z,102009.22
2023-09-24T08:20:04.156Z,101997.13
2023-09-24T08:22:33.544Z,102002.19
2023-09-24T08:25:01.597Z,102003.31
2023-09-24T08:27:29.454Z,102004.22
2023-09-24T08:29:57.573Z,102013.44
2023-09-24T08:32:25.945Z,102023.03
2023-09-24T08:34:53.827Z,102014.09
2023-09-24T08:37:21.802Z,102012.91
2023-09-24T08:39:51.122Z,102007.59
2023-09-24T08:42:21.659Z,102000.50
2023-09-24T08:44:59.358Z,102004.47
2023-09-24T08:47:29.002Z,101998.91
2023-09-24T08:49:58.493Z,101996.44
2023-09-24T08:52:27.156Z,101986.38
2023-09-24T08:54:56.712Z,101990.31
2023-09-24T08:57:24.614Z,101995.38
2023-09-24T08:59:53.109Z,101999.75
2023-09-24T09:02:21.168Z,101995.88
2023-09-24T09:04:50.928Z,101995.69
2023-09-24T09:07:19.056Z,101993.13
2023-09-24T09:09:55.824Z,101990.16
2023-09-24T09:12:27.103Z,101987.13
2023-09-24T09:14:56.434Z,101980.56
2023-09-24T09:17:25.306Z,101984.66
2023-09-24T09:19:55.405Z,101984.28
2023-09-24T09:22:24.703Z,101980.59
2023-09-24T09:25:04.957Z,101984.47
2023-09-24T09:27:34.925Z,101970.50
2023-09-24T09:30:14.401Z,101971.25
2023-09-24T09:32:42.406Z,101963.84
2023-09-24T09:35:10.588Z,101967.25
2023-09-24T09:37:39.461Z,101962.22
2023-09-24T09:40:08.328Z,101956.81
2023-09-24T09:42:38.547Z,101954.41
2023-09-24T09:45:08.229Z,101966.81
2023-09-24T09:47:45.494Z,101956.97
2023-09-24T09:50:18.327Z,101948.22
2023-09-24T09:52:47.276Z,101943.63
2023-09-24T09:55:15.464Z,101948.69
2023-09-24T09:57:45.217Z,101947.56
2023-09-24T10:00:15.998Z,101952.59
2023-09-24T10:02:48.859Z,101948.63
2023-09-24T10:05:19.491Z,101946.84
2023-09-24T10:07:48.291Z,101942.75
2023-09-24T10:10:43.496Z,101935.69
2023-09-24T10:13:45.659Z,101935.78
2023-09-24T10:16:38.486Z,101938.41
2023-09-24T10:19:11.141Z,101935.63
2023-09-24T10:21:40.714Z,101930.09
2023-09-24T10:24:48.400Z,101930.50
2023-09-24T10:27:16.844Z,101928.50
2023-09-24T10:30:05.164Z,101930.41
2023-09-24T10:32:46.781Z,101929.63
2023-09-24T10:35:14.922Z,101928.59
2023-09-24T10:38:06.070Z,101929.44
2023-09-24T10:40:35.235Z,101926.31
2023-09-24T10:43:27.249Z,101929.19
2023-09-24T10:46:27.532Z,101915.13
2023-09-24T10:48:58.202Z,101916.72
2023-09-24T10:51:26.508Z,101912.38
2023-09-24T10:54:12.759Z,101913.59
2023-09-24T10:56:40.977Z,101913.78
2023-09-24T10:59:08.956Z,101911.41
2023-09-24T11:01:36.801Z,101906.44
2023-09-24T11:04:06.248Z,101907.25
2023-09-24T11:06:34.246Z,101900.03
2023-09-24T11:09:18.708Z,101902.63
2023-09-24T11:11:49.513Z,101892.28
2023-09-24T11:14:23.814Z,101896.56
2023-09-24T11:16:52.438Z,101909.00
2023-09-24T11:19:45.447Z,101894.03
2023-09-24T11:22:17.874Z,101884.50
2023-09-24T11:24:45.689Z,101886.69
2023-09-24T11:27:13.798Z,101883.66
2023-09-24T11:29:41.985Z,101880.94
2023-09-24T11:32:26.107Z,101864.75
2023-09-24T11:35:09.001Z,101874.72
2023-09-24T11:37:51.367Z,101870.63
2023-09-24T11:40:23.832Z,101866.91
2023-09-24T11:42:53.086Z,101862.44
2023-09-24T11:45:39.766Z,101857.09
2023-09-24T11:48:08.556Z,101862.06
2023-09-24T11:50:39.700Z,101853.31
2023-09-24T11:53:08.290Z,101850.06
2023-09-24T11:55:37.161Z,101855.50
2023-09-24T11:58:06.749Z,101844.06
2023-09-24T12:00:35.618Z,101845.34
2023-09-24T12:03:05.227Z,101843.38
2023-09-24T12:05:34.526Z,101826.78
2023-09-24T12:08:05.679Z,101830.34
2023-09-24T12:10:34.878Z,101835.97
2023-09-24T12:13:05.336Z,101830.59
2023-09-24T12:15:34.570Z,101831.50
2023-09-24T12:18:05.533Z,101821.00
2023-09-24T12:20:34.579Z,101830.97
2023-09-24T12:23:05.663Z,101825.53
2023-09-24T12:25:38.123Z,101828.53
2023-09-24T12:28:08.144Z,101819.00
2023-09-24T12:30:36.425Z,101817.28
2023-09-24T12:33:04.831Z,101821.16
2023-09-24T12:35:32.922Z,101822.06
2023-09-24T12:38:00.955Z,101807.97
2023-09-24T12:40:30.754Z,101811.94
2023-09-24T12:42:59.036Z,101817.09
2023-09-24T12:45:26.936Z,101814.97
2023-09-24T12:47:54.959Z,101807.03
2023-09-24T12:50:22.829Z,101813.00
2023-09-24T12:52:50.683Z,101811.94
2023-09-24T12:55:18.515Z,101803.25
2023-09-24T12:57:47.838Z,101803.91
2023-09-24T13:00:17.851Z,101809.22
2023-09-24T13:02:47.801Z,101805.50
2023-09-24T13:05:17.893Z,101812.41
2023-09-24T13:07:48.092Z,101803.00
2023-09-24T13:10:17.786Z,101809.66
2023-09-24T13:12:47.044Z,101803.06
2023-09-24T13:15:15.067Z,101809.53
2023-09-24T13:17:43.420Z,101799.69
2023-09-24T13:20:12.323Z,101803.59
2023-09-24T13:22:40.421Z,101798.94
2023-09-24T13:25:09.987Z,101810.53
2023-09-24T13:27:38.999Z,101793.28
2023-09-24T13:30:09.710Z,101804.09
2023-09-24T13:32:38.096Z,101782.22
2023-09-24T13:35:08.772Z,101794.00
2023-09-24T13:37:38.783Z,101779.34
2023-09-24T13:40:22.859Z,101787.19
2023-09-24T13:43:00.201Z,101784.44
2023-09-24T13:45:29.531Z,101778.91
2023-09-24T13:47:57.797Z,101780.47
2023-09-24T13:50:25.866Z,101780.22
2023-09-24T13:52:53.732Z,101781.34
2023-09-24T13:55:21.697Z,101776.00
2023-09-24T13:57:49.532Z,101772.69
2023-09-24T14:00:18.064Z,101773.13
2023-09-24T14:02:47.404Z,101772.28
2023-09-24T14:05:15.425Z,101778.44
2023-09-24T14:07:43.184Z,101784.16
2023-09-24T14:10:28.910Z,101780.22
2023-09-24T14:12:56.854Z,101768.34
2023-09-24T14:15:24.698Z,101774.66
2023-09-24T14:18:11.501Z,101773.69
2023-09-24T14:20:41.677Z,101775.69
2023-09-24T14:23:09.556Z,101757.41
2023-09-24T14:25:39.256Z,101761.22
2023-09-24T14:28:07.414Z,101767.06
2023-09-24T14:30:38.425Z,101762.19
2023-09-24T14:33:10.095Z,101748.81
2023-09-24T14:35:37.950Z,101754.72
2023-09-24T14:38:06.137Z,101753.00
2023-09-24T14:40:36.324Z,101757.72
2023-09-24T14:43:04.740Z,101764.50
2023-09-24T14:45:32.534Z,101761.59
2023-09-24T14:48:01.123Z,101758.53
2023-09-24T14:50:30.477Z,101760.69
2023-09-24T14:52:58.296Z,101761.84
2023-09-24T14:55:26.277Z,101754.47
2023-09-24T14:57:55.744Z,101744.84
2023-09-24T15:00:25.906Z,101741.19
2023-09-24T15:02:56.766Z,101744.81
2023-09-24T15:05:25.209Z,101740.53
2023-09-24T15:07:54.593Z,101744.50
2023-09-24T15:10:23.572Z,101739.56
2023-09-24T15:12:53.337Z,101732.31
2023-09-24T15:15:21.230Z,101741.53
2023-09-24T15:17:49.109Z,101748.34
2023-09-24T15:20:17.124Z,101731.84
2023-09-24T15:22:44.974Z,101730.41
2023-09-24T15:25:14.191Z,101715.66
2023-09-24T15:27:42.057Z,101718.25
2023-09-24T15:30:10.686Z,101710.66
2023-09-24T15:32:38.556Z,101717.50
2023-09-24T15:35:07.340Z,101709.38
2023-09-24T15:37:35.236Z,101708.53
2023-09-24T15:40:03.833Z,101705.56
2023-09-24T15:42:33.070Z,101706.59
2023-09-24T15:45:01.045Z,101698.88
2023-09-24T15:47:29.154Z,101696.47
2023-09-24T15:49:58.284Z,101693.53
2023-09-24T15:52:26.235Z,101694.97
2023-09-24T15:54:54.146Z,101686.28
2023-09-24T15:57:23.914Z,101688.34
2023-09-24T15:59:53.265Z,101687.16
2023-09-24T16:02:21.152Z,101687.34
2023-09-24T16:04:49.195Z,101692.09
2023-09-24T16:07:17.036Z,101690.88
2023-09-24T16:09:44.888Z,101694.88
2023-09-24T16:12:12.875Z,101685.47
2023-09-24T16:14:40.890Z,101686.66
2023-09-24T16:17:10.279Z,101688.75
2023-09-24T16:19:38.301Z,101704.44
2023-09-24T16:22:06.614Z,101702.81
2023-09-24T16:24:34.882Z,101705.09
2023-09-24T16:27:03.159Z,101692.59
2023-09-24T16:29:31.452Z,101703.94
2023-09-24T16:31:59.435Z,101693.56
2023-09-24T16:34:29.698Z,101696.47
2023-09-24T16:36:57.734Z,101696.50
2023-09-24T16:39:25.733Z,101705.34
2023-09-24T16:41:53.656Z,101709.50
2023-09-24T16:44:21.641Z,101699.81
2023-09-24T16:46:49.789Z,101701.25
2023-09-24T16:49:18.377Z,101706.94
2023-09-24T16:51:48.590Z,101704.31
2023-09-24T16:54:18.467Z,101710.81
2023-09-24T16:56:46.521Z,101712.75
2023-09-24T16:59:14.369Z,101715.50
2023-09-24T17:01:42.303Z,101710.66
2023-09-24T17:04:10.752Z,101708.78
2023-09-24T17:06:38.883Z,101719.97
2023-09-24T17:09:10.483Z,101724.59
2023-09-24T17:11:38.514Z,101718.31
2023-09-24T17:14:07.842Z,101718.63
2023-09-24T17:16:35.750Z,101718.69
2023-09-24T17:19:03.850Z,101722.34
2023-09-24T17:21:32.030Z,101714.03
2023-09-24T17:24:00.079Z,101717.03
2023-09-24T17:26:29.601Z,101720.97
2023-09-24T17:28:57.584Z,101721.19
2023-09-24T17:31:28.704Z,101724.13
2023-09-24T17:33:57.615Z,101728.56
2023-09-24T17:36:25.629Z,101727.09
2023-09-24T17:38:55.025Z,101728.28
2023-09-24T17:41:24.404Z,101732.66
2023-09-24T17:43:53.787Z,101724.00
2023-09-24T17:46:25.091Z,101731.28
2023-09-24T17:48:53.297Z,101728.06
2023-09-24T17:51:21.119Z,101732.06
2023-09-24T17:53:49.130Z,101732.88
2023-09-24T17:56:18.002Z,101738.16
2023-09-24T17:58:45.938Z,101742.75
2023-09-24T18:01:16.779Z,101745.63
2023-09-24T18:03:47.050Z,101750.97
2023-09-24T18:06:16.905Z,101749.13
2023-09-24T18:08:45.902Z,101759.09
2023-09-24T18:11:14.181Z,101757.56
2023-09-24T18:13:42.028Z,101764.00
2023-09-24T18:16:10.158Z,101767.88
2023-09-24T18:18:40.253Z,101765.47
2023-09-24T18:21:08.912Z,101761.97
2023-09-24T18:23:37.507Z,101772.63
2023-09-24T18:26:05.823Z,101774.00
2023-09-24T18:28:33.851Z,101775.81
2023-09-24T18:31:02.010Z,101763.75
2023-09-24T18:33:30.462Z,101761.31
2023-09-24T18:36:00.994Z,101777.09
2023-09-24T18:38:29.543Z,101774.78
2023-09-24T18:40:57.946Z,101776.81
2023-09-24T18:43:26.381Z,101782.81
2023-09-24T18:46:01.296Z,101777.50
2023-09-24T18:48:29.921Z,101778.56
2023-09-24T18:50:58.666Z,101776.69
2023-09-24T18:53:28.290Z,101786.75
2023-09-24T18:56:03.519Z,101775.00
2023-09-24T18:58:33.039Z,101773.25
2023-09-24T19:01:01.048Z,101779.63
2023-09-24T19:03:29.107Z,101772.53
2023-09-24T19:05:58.505Z,101770.28
2023-09-24T19:08:27.923Z,101764.09
2023-09-24T19:10:55.992Z,101755.56
2023-09-24T19:13:29.935Z,101746.84
2023-09-24T19:16:05.318Z,101756.69
2023-09-24T19:18:34.152Z,101751.56
2023-09-24T19:21:02.668Z,101743.81
2023-09-24T19:23:33.531Z,101734.16
2023-09-24T19:26:11.774Z,101736.13
2023-09-24T19:28:40.016Z,101728.22
2023-09-24T19:31:09.178Z,101730.22
2023-09-24T19:33:38.467Z,101733.88
2023-09-24T19:36:07.799Z,101730.41
2023-09-24T19:38:37.814Z,101733.06
2023-09-24T19:41:07.045Z,101735.56
2023-09-24T19:43:35.225Z,101733.19
2023-09-24T19:46:03.253Z,101728.66
2023-09-24T19:48:32.529Z,101733.06
2023-09-24T19:51:00.857Z,101740.94
2023-09-24T19:53:28.779Z,101737.44
2023-09-24T19:55:58.022Z,101740.97
2023-09-24T19:58:29.320Z,101731.22
2023-09-24T20:01:00.522Z,101740.13
2023-09-24T20:03:29.007Z,101742.06
2023-09-24T20:05:57.592Z,101737.69
2023-09-24T20:08:27.346Z,101736.09
2023-09-24T20:10:55.464Z,101745.06
2023-09-24T20:13:25.001Z,101739.97
2023-09-24T20:15:54.124Z,101748.53
2023-09-24T20:18:22.122Z,101746.22
2023-09-24T20:20:50.058Z,101745.41
2023-09-24T20:23:20.455Z,101741.94
2023-09-24T20:25:54.926Z,101736.63
2023-09-24T20:28:33.767Z,101741.22
2023-09-24T20:31:15.294Z,101734.16
2023-09-24T20:34:00.061Z,101732.47
2023-09-24T20:36:31.803Z,101727.53
2023-09-24T20:39:04.484Z,101738.09
2023-09-24T20:41:36.275Z,101733.78
2023-09-24T20:44:06.583Z,101732.94
2023-09-24T20:46:37.492Z,101732.91
2023-09-24T20:49:06.344Z,101732.22
2023-09-24T20:51:34.522Z,101719.03
2023-09-24T20:54:02.728Z,101719.13
2023-09-24T20:56:32.395Z,101724.47
2023-09-24T20:59:03.813Z,101715.75
2023-09-24T21:01:33.376Z,101720.19
2023-09-24T21:04:02.313Z,101714.16
2023-09-24T21:06:30.226Z,101709.84
2023-09-24T21:09:01.152Z,101705.47
2023-09-24T21:11:29.136Z,101712.56
2023-09-24T21:13:56.969Z,101702.94
2023-09-24T21:16:25.384Z,101703.91
2023-09-24T21:18:57.019Z,101696.09
2023-09-24T21:21:25.079Z,101702.25
2023-09-24T21:23:52.927Z,101693.59
2023-09-24T21:26:22.084Z,101697.16
2023-09-24T21:28:50.658Z,101695.56
2023-09-24T21:31:18.642Z,101683.28
2023-09-24T21:33:47.064Z,101686.03
2023-09-24T21:36:16.684Z,101678.16
2023-09-24T21:38:44.674Z,101681.66
2023-09-24T21:41:12.567Z,101686.03
2023-09-24T21:43:40.424Z,101690.31
2023-09-24T21:46:10.614Z,101688.63
2023-09-24T21:48:38.493Z,101687.81
2023-09-24T21:51:06.923Z,101684.31
2023-09-24T21:53:36.181Z,101680.78
2023-09-24T21:56:04.095Z,101679.94
2023-09-24T21:58:32.082Z,101680.81
2023-09-24T22:01:00.112Z,101670.41
2023-09-24T22:03:28.591Z,101664.31
2023-09-24T22:05:57.328Z,101666.09
2023-09-24T22:08:25.840Z,101655.69
2023-09-24T22:10:55.178Z,101667.88
2023-09-24T22:13:23.311Z,101665.25
2023-09-24T22:15:51.276Z,101674.00
2023-09-24T22:18:19.196Z,101669.59
2023-09-24T22:20:47.434Z,101675.69
2023-09-24T22:23:15.298Z,101669.69
2023-09-24T22:25:43.261Z,101681.09
2023-09-24T22:28:12.674Z,101680.25
2023-09-24T22:30:40.750Z,101680.25
2023-09-24T22:33:09.686Z,101679.38
2023-09-24T22:35:37.790Z,101676.84
2023-09-24T22:38:06.465Z,101677.81
2023-09-24T22:40:34.376Z,101676.03
2023-09-24T22:43:15.631Z,101668.19
2023-09-24T22:45:50.278Z,101674.31
2023-09-24T22:48:18.707Z,101662.06
2023-09-24T22:50:51.610Z,101664.72
2023-09-24T22:53:19.551Z,101664.78
2023-09-24T22:55:47.871Z,101668.31
2023-09-24T22:58:15.931Z,101661.38
2023-09-24T23:00:43.967Z,101661.41
2023-09-24T23:03:13.478Z,101660.53
2023-09-24T23:05:41.844Z,101657.91
2023-09-24T23:08:09.729Z,101654.50
2023-09-24T23:10:38.550Z,101653.63
2023-09-24T23:13:06.834Z,101647.50
2023-09-24T23:15:36.178Z,101649.25
2023-09-24T23:18:04.391Z,101647.50
2023-09-24T23:20:33.962Z,101646.66
2023-09-24T23:23:01.849Z,101641.41
2023-09-24T23:25:29.621Z,101644.06
2023-09-24T23:27:58.897Z,101637.94
2023-09-24T23:30:27.188Z,101637.94
2023-09-24T23:32:56.011Z,101634.53
2023-09-24T23:35:24.141Z,101622.25
2023-09-24T23:37:53.351Z,101628.38
2023-09-24T23:40:24.544Z,101625.78
2023-09-24T23:42:55.338Z,101628.38
2023-09-24T23:45:23.506Z,101615.25
2023-09-24T23:47:51.847Z,101612.66
2023-09-24T23:50:20.271Z,101616.16
2023-09-24T23:52:48.175Z,101623.16
2023-09-24T23:55:16.362Z,101619.63
2023-09-24T23:57:44.326Z,101616.13
